createdAt,value
2023-04-14T00:00:07.721Z,14.21
2023-04-14T00:02:39.968Z,13.99
2023-04-14T00:05:08.959Z,13.90
2023-04-14T00:07:38.011Z,14.04
2023-04-14T00:10:09.499Z,13.98
2023-04-14T00:12:36.852Z,13.85
2023-04-14T00:15:05.245Z,13.71
2023-04-14T00:17:33.105Z,14.02
2023-04-14T00:20:00.814Z,14.06
2023-04-14T00:22:28.289Z,13.61
2023-04-14T00:24:56.415Z,13.39
2023-04-14T00:27:23.685Z,14.07
2023-04-14T00:29:51.555Z,13.83
2023-04-14T00:32:19.900Z,14.01
2023-04-14T00:34:47.350Z,13.94
2023-04-14T00:37:15.240Z,14.31
2023-04-14T00:39:43.121Z,14.07
2023-04-14T00:42:10.920Z,14.23
2023-04-14T00:44:38.163Z,14.38
2023-04-14T00:47:06.896Z,14.07
2023-04-14T00:49:34.666Z,14.08
2023-04-14T00:52:02.065Z,13.97
2023-04-14T00:54:31.296Z,14.17
2023-04-14T00:57:00.814Z,14.29
2023-04-14T00:59:31.026Z,14.24
2023-04-14T01:01:58.857Z,14.07
2023-04-14T01:04:36.843Z,14.73
2023-04-14T01:07:13.118Z,14.12
2023-04-14T01:09:40.733Z,14.38
2023-04-14T01:12:08.848Z,13.92
2023-04-14T01:14:42.567Z,13.83
2023-04-14T01:17:14.982Z,13.65
2023-04-14T01:19:43.276Z,13.82
2023-04-14T01:22:12.288Z,14.30
2023-04-14T01:25:24.047Z,14.05
2023-04-14T01:28:10.814Z,13.64
2023-04-14T01:30:39.062Z,14.02
2023-04-14T01:33:08.734Z,13.97
2023-04-14T01:35:45.245Z,13.79
2023-04-14T01:38:15.508Z,13.77
2023-04-14T01:40:48.839Z,14.17
2023-04-14T01:43:17.659Z,14.16
2023-04-14T01:45:47.059Z,14.33
2023-04-14T01:48:14.658Z,14.11
2023-04-14T01:50:43.315Z,14.41
2023-04-14T01:53:11.674Z,13.94
2023-04-14T01:55:39.157Z,14.08
2023-04-14T01:58:07.252Z,13.83
2023-04-14T02:00:36.162Z,14.02
2023-04-14T02:03:04.836Z,13.66
2023-04-14T02:05:32.708Z,13.63
2023-04-14T02:08:01.637Z,13.71
2023-04-14T02:10:29.894Z,13.54
2023-04-14T02:12:58.010Z,13.99
2023-04-14T02:15:26.259Z,13.90
2023-04-14T02:17:53.778Z,14.02
2023-04-14T02:20:21.645Z,13.78
2023-04-14T02:22:49.476Z,14.06
2023-04-14T02:25:17.011Z,13.94
2023-04-14T02:28:01.990Z,14.19
2023-04-14T02:30:33.512Z,13.97
2023-04-14T02:33:20.679Z,14.31
2023-04-14T02:35:49.748Z,14.14
2023-04-14T02:38:24.516Z,14.00
2023-04-14T02:40:52.429Z,14.04
2023-04-14T02:43:22.924Z,14.37
2023-04-14T02:45:50.893Z,14.18
2023-04-14T02:48:18.561Z,14.42
2023-04-14T02:50:47.075Z,14.27
2023-04-14T02:53:17.865Z,14.51
2023-04-14T02:55:46.312Z,14.52
2023-04-14T02:58:14.857Z,14.61
2023-04-14T03:00:43.162Z,14.55
2023-04-14T03:03:13.045Z,14.61
2023-04-14T03:05:41.963Z,14.52
2023-04-14T03:08:20.485Z,14.54
2023-04-14T03:10:51.020Z,14.46
2023-04-14T03:13:18.789Z,14.44
2023-04-14T03:15:53.739Z,14.54
2023-04-14T03:18:22.438Z,14.92
2023-04-14T03:20:51.904Z,14.26
2023-04-14T03:23:20.378Z,14.74
2023-04-14T03:25:49.273Z,14.47
2023-04-14T03:28:18.149Z,14.76
2023-04-14T03:30:49.152Z,14.21
2023-04-14T03:33:27.526Z,13.95
2023-04-14T03:35:56.792Z,13.78
2023-04-14T03:38:27.934Z,14.01
2023-04-14T03:41:00.574Z,14.38
2023-04-14T03:43:29.632Z,14.35
2023-04-14T03:45:58.236Z,14.30
2023-04-14T03:48:30.390Z,14.21
2023-04-14T03:51:00.161Z,14.42
2023-04-14T03:53:31.164Z,14.58
2023-04-14T03:56:00.123Z,14.70
2023-04-14T03:58:37.451Z,14.51
2023-04-14T04:01:09.277Z,14.45
2023-04-14T04:03:38.722Z,14.60
2023-04-14T04:06:09.765Z,14.42
2023-04-14T04:08:45.120Z,14.79
2023-04-14T04:11:14.664Z,14.92
2023-04-14T04:13:44.722Z,15.15
2023-04-14T04:16:12.953Z,15.00
2023-04-14T04:18:47.643Z,15.01
2023-04-14T04:21:20.155Z,14.84
2023-04-14T04:23:49.256Z,14.58
2023-04-14T04:26:19.691Z,14.81
2023-04-14T04:28:48.478Z,14.96
2023-04-14T04:31:21.656Z,14.41
2023-04-14T04:33:50.295Z,14.38
2023-04-14T04:36:18.337Z,14.55
2023-04-14T04:38:46.754Z,14.18
2023-04-14T04:41:20.833Z,14.23
2023-04-14T04:43:49.697Z,14.09
2023-04-14T04:46:37.399Z,14.34
2023-04-14T04:49:05.641Z,14.03
2023-04-14T04:51:33.539Z,14.47
2023-04-14T04:54:02.059Z,14.47
2023-04-14T04:56:29.902Z,14.60
2023-04-14T05:01:33.387Z,14.56
2023-04-14T05:04:04.246Z,14.44
2023-04-14T05:06:55.976Z,14.28
2023-04-14T05:09:25.468Z,14.31
2023-04-14T05:11:56.112Z,14.32
2023-04-14T05:14:27.397Z,14.30
2023-04-14T05:16:58.436Z,14.35
2023-04-14T05:19:26.780Z,14.40
2023-04-14T05:21:55.808Z,14.33
2023-04-14T05:24:27.482Z,14.37
2023-04-14T05:27:12.972Z,14.32
2023-04-14T05:29:41.729Z,14.26
2023-04-14T05:32:12.990Z,14.57
2023-04-14T05:34:42.071Z,14.50
2023-04-14T05:37:10.888Z,14.63
2023-04-14T05:39:38.927Z,14.76
2023-04-14T05:42:06.832Z,14.99
2023-04-14T05:44:34.773Z,14.97
2023-04-14T05:47:05.980Z,14.85
2023-04-14T05:49:39.811Z,14.78
2023-04-14T05:52:11.675Z,14.67
2023-04-14T05:54:41.263Z,14.68
2023-04-14T05:57:09.995Z,14.96
2023-04-14T05:59:38.892Z,15.06
2023-04-14T06:02:14.362Z,14.84
2023-04-14T06:04:45.792Z,14.71
2023-04-14T06:07:13.550Z,14.67
2023-04-14T06:09:42.774Z,14.72
2023-04-14T06:12:14.299Z,15.04
2023-04-14T06:14:42.066Z,15.09
2023-04-14T06:17:09.934Z,14.82
2023-04-14T06:19:41.978Z,14.92
2023-04-14T06:22:09.559Z,15.07
2023-04-14T06:24:44.772Z,14.52
2023-04-14T06:27:14.609Z,14.63
2023-04-14T06:29:46.022Z,14.52
2023-04-14T06:32:13.752Z,14.90
2023-04-14T06:34:43.089Z,14.64
2023-04-14T06:37:11.729Z,15.11
2023-04-14T06:39:39.809Z,15.23
2023-04-14T06:42:07.631Z,15.04
2023-04-14T06:44:42.777Z,15.35
2023-04-14T06:47:13.385Z,14.70
2023-04-14T06:49:42.160Z,14.56
2023-04-14T06:52:09.891Z,14.43
2023-04-14T06:54:39.106Z,14.60
2023-04-14T06:57:13.743Z,14.29
2023-04-14T06:59:44.861Z,14.20
2023-04-14T07:02:15.118Z,14.56
2023-04-14T07:04:43.910Z,14.54
2023-04-14T07:07:14.422Z,14.32
2023-04-14T07:09:49.315Z,14.31
2023-04-14T07:12:39.856Z,14.78
2023-04-14T07:15:30.709Z,14.60
2023-04-14T07:18:01.463Z,14.41
2023-04-14T07:20:30.123Z,14.57
2023-04-14T07:23:12.822Z,14.55
2023-04-14T07:25:50.379Z,14.83
2023-04-14T07:28:19.878Z,14.44
2023-04-14T07:30:55.850Z,14.72
2023-04-14T07:33:52.753Z,15.12
2023-04-14T07:37:01.358Z,14.96
2023-04-14T07:39:30.772Z,15.10
2023-04-14T07:44:45.119Z,15.09
2023-04-14T07:47:46.454Z,15.23
2023-04-14T07:50:19.711Z,15.30
2023-04-14T07:52:49.707Z,15.08
2023-04-14T07:55:19.315Z,15.22
2023-04-14T07:57:57.942Z,14.86
2023-04-14T08:00:34.113Z,15.30
2023-04-14T08:03:11.841Z,15.09
2023-04-14T08:05:39.972Z,15.20
2023-04-14T08:08:27.724Z,15.22
2023-04-14T08:10:59.658Z,15.40
2023-04-14T08:13:29.599Z,15.55
2023-04-14T08:16:13.159Z,15.52
2023-04-14T08:18:51.264Z,14.74
2023-04-14T08:21:40.750Z,14.84
2023-04-14T08:24:08.544Z,15.33
2023-04-14T08:26:57.713Z,15.09
2023-04-14T08:29:40.704Z,14.80
2023-04-14T08:32:12.549Z,14.85
2023-04-14T08:35:38.892Z,15.27
2023-04-14T08:37:56.979Z,15.10
2023-04-14T08:40:24.736Z,15.02
2023-04-14T08:42:58.701Z,14.91
2023-04-14T08:45:28.781Z,14.69
2023-04-14T08:48:04.750Z,14.90
2023-04-14T08:50:37.755Z,14.79
2023-04-14T08:53:07.807Z,14.62
2023-04-14T08:55:42.694Z,14.70
2023-04-14T08:58:13.151Z,15.03
2023-04-14T09:00:41.399Z,14.83
2023-04-14T09:03:10.077Z,14.54
2023-04-14T09:05:38.350Z,14.79
2023-04-14T09:08:05.936Z,14.98
2023-04-14T09:10:35.767Z,15.09
2023-04-14T09:13:06.874Z,15.01
2023-04-14T09:15:37.400Z,15.08
2023-04-14T09:18:05.834Z,15.08
2023-04-14T09:20:41.956Z,14.78
2023-04-14T09:23:13.986Z,14.65
2023-04-14T09:25:44.004Z,14.03
2023-04-14T09:28:13.864Z,14.72
2023-04-14T09:30:44.183Z,14.70
2023-04-14T09:33:24.323Z,14.74
2023-04-14T09:35:56.509Z,14.42
2023-04-14T09:38:39.793Z,14.69
2023-04-14T09:41:08.480Z,14.42
2023-04-14T09:43:37.744Z,14.76
2023-04-14T09:46:07.987Z,15.01
2023-04-14T09:49:00.732Z,14.79
2023-04-14T09:54:07.278Z,15.10
2023-04-14T09:56:37.736Z,15.08
2023-04-14T09:59:10.796Z,15.38
2023-04-14T10:01:39.814Z,15.21
2023-04-14T10:04:23.194Z,15.33
2023-04-14T10:07:06.948Z,14.65
2023-04-14T10:09:38.013Z,14.65
2023-04-14T10:12:19.744Z,14.60
2023-04-14T10:14:47.729Z,14.39
2023-04-14T10:17:18.662Z,14.58
2023-04-14T10:23:40.661Z,14.75
2023-04-14T10:26:11.524Z,14.50
2023-04-14T10:28:39.611Z,14.45
2023-04-14T10:35:10.494Z,14.48
2023-04-14T10:37:45.598Z,14.23
2023-04-14T10:40:13.714Z,14.43
2023-04-14T10:42:52.198Z,14.09
2023-04-14T10:45:20.200Z,14.20
2023-04-14T10:47:51.841Z,14.34
2023-04-14T10:50:24.355Z,14.35
2023-04-14T10:52:56.485Z,13.94
2023-04-14T10:55:26.038Z,14.36
2023-04-14T10:58:07.113Z,14.21
2023-04-14T11:00:44.480Z,13.97
2023-04-14T11:03:19.389Z,13.87
2023-04-14T11:05:54.019Z,13.92
2023-04-14T11:08:43.784Z,13.90
2023-04-14T11:11:28.113Z,14.32
2023-04-14T11:14:37.009Z,14.15
2023-04-14T11:17:20.437Z,14.23
2023-04-14T11:20:23.686Z,14.13
2023-04-14T11:23:14.918Z,14.23
2023-04-14T11:25:58.411Z,14.14
2023-04-14T11:28:45.464Z,14.09
2023-04-14T11:31:30.310Z,14.20
2023-04-14T11:34:24.513Z,13.94
2023-04-14T11:37:04.448Z,13.90
2023-04-14T11:40:05.742Z,14.30
2023-04-14T11:42:53.053Z,14.21
2023-04-14T11:45:35.567Z,14.11
2023-04-14T11:48:41.290Z,13.88
2023-04-14T11:51:21.673Z,13.75
2023-04-14T11:54:04.244Z,13.64
2023-04-14T11:56:52.705Z,13.92
2023-04-14T11:59:44.673Z,13.18
2023-04-14T12:02:26.960Z,13.21
2023-04-14T12:05:20.096Z,13.15
2023-04-14T12:08:12.186Z,12.99
2023-04-14T12:10:49.116Z,13.19
2023-04-14T12:14:21.852Z,13.22
2023-04-14T12:17:22.735Z,12.93
2023-04-14T12:20:02.833Z,12.77
2023-04-14T12:23:05.528Z,13.23
2023-04-14T12:25:45.775Z,13.15
2023-04-14T12:28:30.991Z,12.88
2023-04-14T12:31:33.115Z,13.00
2023-04-14T12:34:19.929Z,13.22
2023-04-14T12:37:25.048Z,13.27
2023-04-14T12:40:12.454Z,12.56
2023-04-14T12:43:06.836Z,12.72
2023-04-14T12:45:51.375Z,12.62
2023-04-14T12:51:28.650Z,12.66
2023-04-14T12:54:12.690Z,12.66
2023-04-14T12:59:51.808Z,12.18
2023-04-14T13:02:47.880Z,12.63
2023-04-14T13:05:30.719Z,13.05
2023-04-14T13:08:15.769Z,12.72
2023-04-14T13:12:05.880Z,12.53
2023-04-14T13:17:47.583Z,12.59
2023-04-14T13:20:35.722Z,12.49
2023-04-14T13:23:25.685Z,12.67
2023-04-14T13:26:24.712Z,12.81
2023-04-14T13:29:10.737Z,12.68
2023-04-14T13:32:13.064Z,12.99
2023-04-14T13:35:04.933Z,12.79
2023-04-14T13:37:43.013Z,12.97
2023-04-14T13:40:40.647Z,12.64
2023-04-14T13:43:24.837Z,12.74
2023-04-14T13:46:11.611Z,12.60
2023-04-14T13:49:22.859Z,12.70
2023-04-14T13:52:16.095Z,12.71
2023-04-14T13:55:04.076Z,12.76
2023-04-14T13:57:48.248Z,12.31
2023-04-14T14:00:41.837Z,12.30
2023-04-14T14:03:30.800Z,12.21
2023-04-14T14:06:24.904Z,12.30
2023-04-14T14:09:08.374Z,12.20
2023-04-14T14:11:43.734Z,11.91
2023-04-14T14:14:45.903Z,11.87
2023-04-14T14:17:46.726Z,11.53
2023-04-14T14:20:39.680Z,11.41
2023-04-14T14:23:28.872Z,11.41
2023-04-14T14:26:22.408Z,11.59
2023-04-14T14:29:09.508Z,11.73
2023-04-14T14:31:59.707Z,12.00
2023-04-14T14:34:47.881Z,11.83
2023-04-14T14:37:42.271Z,11.32
2023-04-14T14:40:27.894Z,11.45
2023-04-14T14:43:17.700Z,11.60
2023-04-14T14:46:10.982Z,11.64
2023-04-14T14:48:53.708Z,11.58
2023-04-14T14:51:49.125Z,11.41
2023-04-14T14:54:29.653Z,11.58
2023-04-14T14:57:11.885Z,11.91
2023-04-14T15:00:08.794Z,12.45
2023-04-14T15:02:53.224Z,12.31
2023-04-14T15:05:44.754Z,11.70
2023-04-14T15:11:16.872Z,11.21
2023-04-14T15:13:58.858Z,11.00
2023-04-14T15:16:57.770Z,10.84
2023-04-14T15:19:38.753Z,10.86
2023-04-14T15:22:44.628Z,10.38
2023-04-14T15:25:31.930Z,10.84
2023-04-14T15:31:22.896Z,10.46
2023-04-14T15:34:12.037Z,10.66
2023-04-14T15:37:15.697Z,10.24
2023-04-14T15:39:52.857Z,10.49
2023-04-14T15:42:37.563Z,10.42
2023-04-14T15:45:41.739Z,10.48
2023-04-14T15:48:20.945Z,10.52
2023-04-14T15:51:14.209Z,10.77
2023-04-14T15:53:55.087Z,10.39
2023-04-14T15:56:41.179Z,10.29
2023-04-14T15:59:30.575Z,10.44
2023-04-14T16:02:18.086Z,10.22
2023-04-14T16:05:11.907Z,10.51
2023-04-14T16:07:59.913Z,10.40
2023-04-14T16:10:43.153Z,10.23
2023-04-14T16:13:27.578Z,10.28
2023-04-14T16:16:20.045Z,10.49
2023-04-14T16:19:20.298Z,10.15
2023-04-14T16:22:08.224Z,10.34
2023-04-14T16:24:50.959Z,10.28
2023-04-14T16:27:44.739Z,10.49
2023-04-14T16:30:29.063Z,9.88
2023-04-14T16:33:13.093Z,10.21
2023-04-14T16:38:54.222Z,10.22
2023-04-14T16:44:24.868Z,9.91
2023-04-14T16:47:13.427Z,9.84
2023-04-14T16:49:59.064Z,10.05
2023-04-14T16:52:46.202Z,10.21
2023-04-14T16:55:47.760Z,10.18
2023-04-14T16:58:34.708Z,10.20
2023-04-14T17:01:21.161Z,10.17
2023-04-14T17:04:20.437Z,10.44
2023-04-14T17:07:06.216Z,10.07
2023-04-14T17:09:54.609Z,10.19
2023-04-14T17:12:47.356Z,10.54
2023-04-14T17:15:39.686Z,10.41
2023-04-14T17:18:27.690Z,10.57
2023-04-14T17:21:16.541Z,10.33
2023-04-14T17:24:15.673Z,10.17
2023-04-14T17:26:59.793Z,10.21
2023-04-14T17:29:45.816Z,9.82
2023-04-14T17:32:29.690Z,10.21
2023-04-14T17:35:13.731Z,9.85
2023-04-14T17:37:59.689Z,9.85
2023-04-14T17:40:55.111Z,9.96
2023-04-14T17:43:42.898Z,10.10
2023-04-14T17:46:31.738Z,9.99
2023-04-14T17:49:28.475Z,10.18
2023-04-14T17:52:14.194Z,9.81
2023-04-14T17:55:09.015Z,10.12
2023-04-14T17:58:05.679Z,9.88
2023-04-14T18:03:43.930Z,10.15
2023-04-14T18:06:26.007Z,9.99
2023-04-14T18:09:15.982Z,10.07
2023-04-14T18:12:00.158Z,10.07
2023-04-14T18:14:50.671Z,9.65
2023-04-14T18:17:43.443Z,10.13
2023-04-14T18:20:26.648Z,10.33
2023-04-14T18:23:28.861Z,10.31
2023-04-14T18:29:05.009Z,10.14
2023-04-14T18:31:54.634Z,9.97
2023-04-14T18:34:54.072Z,9.94
2023-04-14T18:37:42.870Z,10.11
2023-04-14T18:40:27.891Z,9.83
2023-04-14T18:43:14.759Z,9.37
2023-04-14T18:46:14.140Z,9.77
2023-04-14T18:49:14.668Z,9.61
2023-04-14T18:52:02.697Z,9.81
2023-04-14T18:54:46.753Z,10.00
2023-04-14T18:57:32.683Z,10.17
2023-04-14T19:00:29.805Z,9.86
2023-04-14T19:03:20.768Z,9.95
2023-04-14T19:06:11.668Z,10.07
2023-04-14T19:14:31.658Z,10.18
2023-04-14T19:17:22.455Z,10.02
2023-04-14T19:22:56.867Z,10.05
2023-04-14T19:25:50.348Z,10.11
2023-04-14T19:28:34.592Z,9.83
2023-04-14T19:31:18.622Z,10.01
2023-04-14T19:34:00.751Z,10.07
2023-04-14T19:36:55.583Z,10.03
2023-04-14T19:39:46.799Z,9.97
2023-04-14T19:42:29.915Z,9.85
2023-04-14T19:45:12.140Z,9.63
2023-04-14T19:48:22.070Z,9.75
2023-04-14T19:50:54.935Z,9.78
2023-04-14T19:53:38.628Z,9.77
2023-04-14T19:56:34.192Z,9.70
2023-04-14T19:59:19.191Z,9.71
2023-04-14T20:02:06.715Z,9.73
2023-04-14T20:04:57.733Z,9.47
2023-04-14T20:07:37.923Z,9.50
2023-04-14T20:10:33.688Z,9.75
2023-04-14T20:13:16.058Z,9.92
2023-04-14T20:18:51.469Z,9.96
2023-04-14T20:21:39.861Z,9.92
2023-04-14T20:24:21.950Z,9.91
2023-04-14T20:27:11.192Z,9.85
2023-04-14T20:29:53.898Z,9.73
2023-04-14T20:32:38.731Z,9.55
2023-04-14T20:35:24.681Z,9.45
2023-04-14T20:38:07.983Z,9.66
2023-04-14T20:40:52.970Z,9.68
2023-04-14T20:43:39.129Z,9.58
2023-04-14T20:46:23.846Z,9.53
2023-04-14T20:49:08.079Z,9.40
2023-04-14T20:51:52.763Z,9.21
2023-04-14T20:54:37.024Z,9.35
2023-04-14T20:57:19.645Z,9.37
2023-04-14T21:00:01.684Z,9.26
2023-04-14T21:02:47.355Z,9.09
2023-04-14T21:05:32.728Z,9.33
2023-04-14T21:08:14.843Z,9.28
2023-04-14T21:11:16.030Z,9.14
2023-04-14T21:15:40.079Z,9.06
2023-04-14T21:16:24.782Z,9.20
2023-04-14T21:19:07.774Z,9.23
2023-04-14T21:21:49.552Z,9.07
2023-04-14T21:24:35.771Z,9.15
2023-04-14T21:27:22.712Z,9.17
2023-04-14T21:30:12.701Z,9.30
2023-04-14T21:32:55.028Z,9.10
2023-04-14T21:35:42.608Z,8.71
2023-04-14T21:38:35.828Z,8.77
2023-04-14T21:41:17.429Z,8.90
2023-04-14T21:43:59.493Z,8.74
2023-04-14T21:53:06.636Z,8.64
2023-04-14T21:56:03.440Z,8.75
2023-04-14T21:58:31.687Z,8.70
2023-04-14T22:01:14.889Z,8.52
2023-04-14T22:03:57.681Z,8.54
2023-04-14T22:06:40.921Z,8.46
2023-04-14T22:09:25.818Z,8.57
2023-04-14T22:12:07.861Z,8.41
2023-04-14T22:14:50.669Z,8.64
2023-04-14T22:17:37.524Z,8.72
2023-04-14T22:20:19.789Z,8.70
2023-04-14T22:23:13.475Z,8.54
2023-04-14T22:25:57.144Z,8.48
2023-04-14T22:28:39.929Z,8.41
2023-04-14T22:31:32.228Z,8.30
2023-04-14T22:34:14.224Z,8.61
2023-04-14T22:37:18.449Z,8.66
2023-04-14T22:39:57.938Z,8.61
2023-04-14T22:42:55.874Z,8.66
2023-04-14T22:45:37.409Z,8.74
2023-04-14T22:48:19.576Z,8.81
2023-04-14T22:51:13.257Z,8.71
2023-04-14T22:54:02.397Z,8.84
2023-04-14T22:57:12.625Z,8.98
2023-04-14T22:59:52.731Z,8.92
2023-04-14T23:02:45.596Z,8.96
2023-04-14T23:05:27.438Z,8.61
2023-04-14T23:08:18.322Z,8.54
2023-04-14T23:10:58.469Z,8.85
2023-04-14T23:13:52.857Z,8.96
2023-04-14T23:16:42.557Z,8.25
2023-04-14T23:19:33.769Z,8.37
2023-04-14T23:22:13.799Z,8.52
2023-04-14T23:25:07.334Z,8.61
2023-04-14T23:27:47.983Z,8.89
2023-04-14T23:30:45.848Z,8.84
2023-04-14T23:33:24.701Z,8.49
2023-04-14T23:36:18.729Z,8.31
2023-04-14T23:38:57.757Z,8.20
2023-04-14T23:41:49.507Z,8.15
2023-04-14T23:48:11.448Z,8.13
2023-04-14T23:51:21.899Z,8.49
2023-04-14T23:54:18.567Z,8.28
2023-04-14T23:56:59.162Z,8.79
2023-04-14T23:59:53.166Z,8.87
